sensor_id;sensor_type;location;lat;lon;timestamp;P1;durP1;ratioP1;P2;durP2;ratioP2
7879;SDS011;3985;49.366;2.738;2024-01-15T00:01:22;44.00;;;34.33;;
7879;SDS011;3985;49.366;2.738;2024-01-15T00:03:49;54.67;;;43.33;;
7879;SDS011;3985;49.366;2.738;2024-01-15T00:06:17;45.00;;;39.00;;
7879;SDS011;3985;49.366;2.738;2024-01-15T00:08:45;50.67;;;43.00;;
7879;SDS011;3985;49.366;2.738;2024-01-15T00:11:12;55.33;;;43.00;;
7879;SDS011;3985;49.366;2.738;2024-01-15T00:13:40;44.67;;;38.67;;
7879;SDS011;3985;49.366;2.738;2024-01-15T00:16:07;51.00;;;42.00;;
7879;SDS011;3985;49.366;2.738;2024-01-15T00:18:36;37.33;;;35.33;;
7879;SDS011;3985;49.366;2.738;2024-01-15T00:21:04;54.67;;;43.00;;
7879;SDS011;3985;49.366;2.738;2024-01-15T00:23:33;51.33;;;42.33;;
7879;SDS011;3985;49.366;2.738;2024-01-15T00:26:00;46.33;;;40.67;;
7879;SDS011;3985;49.366;2.738;2024-01-15T00:28:27;49.33;;;42.00;;
7879;SDS011;3985;49.366;2.738;2024-01-15T00:30:55;47.33;;;41.67;;
7879;SDS011;3985;49.366;2.738;2024-01-15T00:33:22;46.67;;;41.00;;
7879;SDS011;3985;49.366;2.738;2024-01-15T00:35:51;46.67;;;40.67;;
7879;SDS011;3985;49.366;2.738;2024-01-15T00:38:18;44.67;;;43.33;;
7879;SDS011;3985;49.366;2.738;2024-01-15T00:40:46;54.67;;;45.67;;
7879;SDS011;3985;49.366;2.738;2024-01-15T00:43:13;51.00;;;43.00;;
7879;SDS011;3985;49.366;2.738;2024-01-15T00:45:43;47.00;;;40.33;;
7879;SDS011;3985;49.366;2.738;2024-01-15T00:48:10;46.33;;;41.67;;
7879;SDS011;3985;49.366;2.738;2024-01-15T00:50:38;52.33;;;41.67;;
7879;SDS011;3985;49.366;2.738;2024-01-15T00:53:06;50.33;;;42.00;;
7879;SDS011;3985;49.366;2.738;2024-01-15T00:55:35;44.67;;;40.67;;
7879;SDS011;3985;49.366;2.738;2024-01-15T00:58:05;46.33;;;41.67;;
7879;SDS011;3985;49.366;2.738;2024-01-15T01:00:32;56.33;;;46.33;;
7879;SDS011;3985;49.366;2.738;2024-01-15T01:02:59;52.67;;;44.33;;
7879;SDS011;3985;49.366;2.738;2024-01-15T01:05:26;40.67;;;40.00;;
7879;SDS011;3985;49.366;2.738;2024-01-15T01:07:54;54.00;;;44.33;;
7879;SDS011;3985;49.366;2.738;2024-01-15T01:10:23;49.67;;;39.67;;
7879;SDS011;3985;49.366;2.738;2024-01-15T01:12:50;44.00;;;42.33;;
7879;SDS011;3985;49.366;2.738;2024-01-15T01:15:17;51.67;;;43.67;;
7879;SDS011;3985;49.366;2.738;2024-01-15T01:17:45;56.00;;;44.33;;
7879;SDS011;3985;49.366;2.738;2024-01-15T01:20:12;44.67;;;41.33;;
7879;SDS011;3985;49.366;2.738;2024-01-15T01:22:40;45.67;;;38.33;;
7879;SDS011;3985;49.366;2.738;2024-01-15T01:25:07;54.33;;;44.67;;
7879;SDS011;3985;49.366;2.738;2024-01-15T01:27:36;50.00;;;45.67;;
7879;SDS011;3985;49.366;2.738;2024-01-15T01:30:05;46.00;;;37.67;;
7879;SDS011;3985;49.366;2.738;2024-01-15T01:32:32;51.00;;;41.67;;
7879;SDS011;3985;49.366;2.738;2024-01-15T01:35:00;38.67;;;37.00;;
7879;SDS011;3985;49.366;2.738;2024-01-15T01:37:27;45.33;;;40.33;;
7879;SDS011;3985;49.366;2.738;2024-01-15T01:39:54;35.67;;;35.67;;
7879;SDS011;3985;49.366;2.738;2024-01-15T01:42:22;44.33;;;41.67;;
7879;SDS011;3985;49.366;2.738;2024-01-15T01:44:50;46.33;;;40.33;;
7879;SDS011;3985;49.366;2.738;2024-01-15T01:47:18;37.67;;;36.00;;
7879;SDS011;3985;49.366;2.738;2024-01-15T01:49:45;52.00;;;41.00;;
7879;SDS011;3985;49.366;2.738;2024-01-15T01:52:12;50.67;;;41.33;;
7879;SDS011;3985;49.366;2.738;2024-01-15T01:54:40;33.67;;;31.67;;
7879;SDS011;3985;49.366;2.738;2024-01-15T01:57:08;52.00;;;41.00;;
7879;SDS011;3985;49.366;2.738;2024-01-15T01:59:36;45.67;;;40.33;;
7879;SDS011;3985;49.366;2.738;2024-01-15T02:02:06;43.67;;;41.00;;
7879;SDS011;3985;49.366;2.738;2024-01-15T02:04:33;47.67;;;39.67;;
7879;SDS011;3985;49.366;2.738;2024-01-15T02:07:01;53.00;;;42.33;;
7879;SDS011;3985;49.366;2.738;2024-01-15T02:09:29;41.00;;;39.67;;
7879;SDS011;3985;49.366;2.738;2024-01-15T02:12:00;48.00;;;43.33;;
7879;SDS011;3985;49.366;2.738;2024-01-15T02:14:27;52.67;;;42.33;;
7879;SDS011;3985;49.366;2.738;2024-01-15T02:16:54;45.33;;;41.33;;
7879;SDS011;3985;49.366;2.738;2024-01-15T02:19:25;47.33;;;39.33;;
7879;SDS011;3985;49.366;2.738;2024-01-15T02:21:53;34.00;;;29.67;;
7879;SDS011;3985;49.366;2.738;2024-01-15T02:24:21;54.00;;;41.33;;
7879;SDS011;3985;49.366;2.738;2024-01-15T02:26:49;49.00;;;43.33;;
7879;SDS011;3985;49.366;2.738;2024-01-15T02:29:16;53.00;;;43.00;;
7879;SDS011;3985;49.366;2.738;2024-01-15T02:31:44;46.00;;;40.67;;
7879;SDS011;3985;49.366;2.738;2024-01-15T02:34:11;50.00;;;43.67;;
7879;SDS011;3985;49.366;2.738;2024-01-15T02:36:39;56.00;;;45.33;;
7879;SDS011;3985;49.366;2.738;2024-01-15T02:39:06;48.33;;;40.67;;
7879;SDS011;3985;49.366;2.738;2024-01-15T02:41:35;52.67;;;46.00;;
7879;SDS011;3985;49.366;2.738;2024-01-15T02:44:04;50.00;;;42.33;;
7879;SDS011;3985;49.366;2.738;2024-01-15T02:46:31;53.33;;;44.33;;
7879;SDS011;3985;49.366;2.738;2024-01-15T02:48:58;57.67;;;47.33;;
7879;SDS011;3985;49.366;2.738;2024-01-15T02:51:26;49.33;;;44.33;;
7879;SDS011;3985;49.366;2.738;2024-01-15T02:53:53;45.00;;;41.00;;
7879;SDS011;3985;49.366;2.738;2024-01-15T02:56:20;46.00;;;40.33;;
7879;SDS011;3985;49.366;2.738;2024-01-15T02:58:49;51.67;;;42.67;;
7879;SDS011;3985;49.366;2.738;2024-01-15T03:01:18;55.00;;;45.67;;
7879;SDS011;3985;49.366;2.738;2024-01-15T03:03:45;49.67;;;42.67;;
7879;SDS011;3985;49.366;2.738;2024-01-15T03:06:12;52.00;;;44.00;;
7879;SDS011;3985;49.366;2.738;2024-01-15T03:08:40;53.00;;;42.33;;
7879;SDS011;3985;49.366;2.738;2024-01-15T03:11:07;55.67;;;42.67;;
7879;SDS011;3985;49.366;2.738;2024-01-15T03:13:37;48.67;;;40.00;;
7879;SDS011;3985;49.366;2.738;2024-01-15T03:16:08;56.00;;;45.00;;
7879;SDS011;3985;49.366;2.738;2024-01-15T03:18:37;45.67;;;42.33;;
7879;SDS011;3985;49.366;2.738;2024-01-15T03:21:04;51.00;;;41.33;;
7879;SDS011;3985;49.366;2.738;2024-01-15T03:23:35;44.67;;;39.67;;
7879;SDS011;3985;49.366;2.738;2024-01-15T03:26:03;41.67;;;39.67;;
7879;SDS011;3985;49.366;2.738;2024-01-15T03:28:30;47.00;;;43.00;;
7879;SDS011;3985;49.366;2.738;2024-01-15T03:30:57;48.67;;;40.67;;
7879;SDS011;3985;49.366;2.738;2024-01-15T03:33:26;42.33;;;36.33;;
7879;SDS011;3985;49.366;2.738;2024-01-15T03:35:53;38.33;;;36.00;;
7879;SDS011;3985;49.366;2.738;2024-01-15T03:38:22;47.33;;;43.00;;
7879;SDS011;3985;49.366;2.738;2024-01-15T03:40:49;50.00;;;40.67;;
7879;SDS011;3985;49.366;2.738;2024-01-15T03:43:19;57.33;;;45.33;;
7879;SDS011;3985;49.366;2.738;2024-01-15T03:45:46;49.67;;;42.33;;
7879;SDS011;3985;49.366;2.738;2024-01-15T03:48:13;43.33;;;41.33;;
7879;SDS011;3985;49.366;2.738;2024-01-15T03:50:42;47.33;;;44.00;;
7879;SDS011;3985;49.366;2.738;2024-01-15T03:53:09;61.00;;;44.67;;
7879;SDS011;3985;49.366;2.738;2024-01-15T03:55:37;49.33;;;41.67;;
7879;SDS011;3985;49.366;2.738;2024-01-15T03:58:04;50.00;;;45.00;;
7879;SDS011;3985;49.366;2.738;2024-01-15T04:00:31;61.00;;;47.00;;
7879;SDS011;3985;49.366;2.738;2024-01-15T04:02:58;47.33;;;41.00;;
7879;SDS011;3985;49.366;2.738;2024-01-15T04:05:26;41.00;;;34.67;;
7879;SDS011;3985;49.366;2.738;2024-01-15T04:07:57;46.33;;;40.00;;
7879;SDS011;3985;49.366;2.738;2024-01-15T04:10:25;41.67;;;41.00;;
7879;SDS011;3985;49.366;2.738;2024-01-15T04:12:54;56.00;;;46.00;;
7879;SDS011;3985;49.366;2.738;2024-01-15T04:15:29;47.00;;;41.33;;
7879;SDS011;3985;49.366;2.738;2024-01-15T04:17:56;45.00;;;40.33;;
7879;SDS011;3985;49.366;2.738;2024-01-15T04:20:24;48.67;;;36.67;;
7879;SDS011;3985;49.366;2.738;2024-01-15T04:22:51;53.33;;;42.33;;
7879;SDS011;3985;49.366;2.738;2024-01-15T04:25:20;37.00;;;35.33;;
7879;SDS011;3985;49.366;2.738;2024-01-15T04:27:47;48.33;;;39.67;;
7879;SDS011;3985;49.366;2.738;2024-01-15T04:30:15;39.67;;;33.00;;
7879;SDS011;3985;49.366;2.738;2024-01-15T04:32:42;46.00;;;42.00;;
7879;SDS011;3985;49.366;2.738;2024-01-15T04:35:10;43.00;;;38.00;;
7879;SDS011;3985;49.366;2.738;2024-01-15T04:37:37;50.00;;;43.00;;
7879;SDS011;3985;49.366;2.738;2024-01-15T04:40:06;45.00;;;38.33;;
7879;SDS011;3985;49.366;2.738;2024-01-15T04:42:35;42.67;;;41.00;;
7879;SDS011;3985;49.366;2.738;2024-01-15T04:45:02;23.00;;;23.00;;
7879;SDS011;3985;49.366;2.738;2024-01-15T04:47:30;51.67;;;44.00;;
7879;SDS011;3985;49.366;2.738;2024-01-15T04:49:57;46.00;;;41.33;;
7879;SDS011;3985;49.366;2.738;2024-01-15T04:52:30;47.33;;;43.67;;
7879;SDS011;3985;49.366;2.738;2024-01-15T04:54:57;39.67;;;39.33;;
7879;SDS011;3985;49.366;2.738;2024-01-15T04:57:24;41.33;;;39.33;;
7879;SDS011;3985;49.366;2.738;2024-01-15T04:59:53;53.33;;;41.00;;
7879;SDS011;3985;49.366;2.738;2024-01-15T05:02:21;33.67;;;31.33;;
7879;SDS011;3985;49.366;2.738;2024-01-15T05:04:48;48.67;;;40.67;;
7879;SDS011;3985;49.366;2.738;2024-01-15T05:07:15;36.67;;;32.33;;
7879;SDS011;3985;49.366;2.738;2024-01-15T05:09:43;30.00;;;29.00;;
7879;SDS011;3985;49.366;2.738;2024-01-15T05:12:12;42.00;;;38.33;;
7879;SDS011;3985;49.366;2.738;2024-01-15T05:14:40;41.67;;;35.33;;
7879;SDS011;3985;49.366;2.738;2024-01-15T05:17:08;44.33;;;41.33;;
7879;SDS011;3985;49.366;2.738;2024-01-15T05:19:36;45.33;;;40.33;;
7879;SDS011;3985;49.366;2.738;2024-01-15T05:22:03;42.67;;;35.67;;
7879;SDS011;3985;49.366;2.738;2024-01-15T05:24:30;44.67;;;37.33;;
7879;SDS011;3985;49.366;2.738;2024-01-15T05:26:57;40.67;;;36.33;;
7879;SDS011;3985;49.366;2.738;2024-01-15T05:29:25;36.33;;;33.33;;
7879;SDS011;3985;49.366;2.738;2024-01-15T05:31:53;30.67;;;27.00;;
7879;SDS011;3985;49.366;2.738;2024-01-15T05:34:23;38.00;;;32.67;;
7879;SDS011;3985;49.366;2.738;2024-01-15T05:36:53;37.00;;;31.67;;
7879;SDS011;3985;49.366;2.738;2024-01-15T05:39:20;45.67;;;39.00;;
7879;SDS011;3985;49.366;2.738;2024-01-15T05:41:51;38.00;;;34.00;;
7879;SDS011;3985;49.366;2.738;2024-01-15T05:44:19;37.67;;;36.00;;
7879;SDS011;3985;49.366;2.738;2024-01-15T05:46:52;44.33;;;39.00;;
7879;SDS011;3985;49.366;2.738;2024-01-15T05:49:20;34.00;;;33.00;;
7879;SDS011;3985;49.366;2.738;2024-01-15T05:51:48;44.67;;;34.67;;
7879;SDS011;3985;49.366;2.738;2024-01-15T05:54:17;43.33;;;34.00;;
7879;SDS011;3985;49.366;2.738;2024-01-15T05:56:45;36.33;;;31.33;;
7879;SDS011;3985;49.366;2.738;2024-01-15T05:59:14;47.33;;;37.67;;
7879;SDS011;3985;49.366;2.738;2024-01-15T06:01:42;34.33;;;32.00;;
7879;SDS011;3985;49.366;2.738;2024-01-15T06:04:09;46.67;;;38.67;;
7879;SDS011;3985;49.366;2.738;2024-01-15T06:06:36;48.00;;;35.33;;
7879;SDS011;3985;49.366;2.738;2024-01-15T06:09:05;34.33;;;28.67;;
7879;SDS011;3985;49.366;2.738;2024-01-15T06:11:34;31.67;;;26.33;;
7879;SDS011;3985;49.366;2.738;2024-01-15T06:14:01;41.33;;;34.67;;
7879;SDS011;3985;49.366;2.738;2024-01-15T06:16:28;43.00;;;37.33;;
7879;SDS011;3985;49.366;2.738;2024-01-15T06:18:56;38.67;;;28.33;;
7879;SDS011;3985;49.366;2.738;2024-01-15T06:21:23;33.00;;;33.00;;
7879;SDS011;3985;49.366;2.738;2024-01-15T06:23:53;43.33;;;40.33;;
7879;SDS011;3985;49.366;2.738;2024-01-15T06:26:22;40.33;;;34.33;;
7879;SDS011;3985;49.366;2.738;2024-01-15T06:28:49;32.33;;;27.67;;
7879;SDS011;3985;49.366;2.738;2024-01-15T06:31:17;40.50;;;32.25;;
7879;SDS011;3985;49.366;2.738;2024-01-15T06:33:44;41.33;;;34.00;;
7879;SDS011;3985;49.366;2.738;2024-01-15T06:36:13;29.50;;;26.75;;
7879;SDS011;3985;49.366;2.738;2024-01-15T06:38:41;43.25;;;34.00;;
7879;SDS011;3985;49.366;2.738;2024-01-15T06:41:09;33.75;;;32.00;;
7879;SDS011;3985;49.366;2.738;2024-01-15T06:43:41;43.00;;;36.00;;
7879;SDS011;3985;49.366;2.738;2024-01-15T06:46:08;41.00;;;34.25;;
7879;SDS011;3985;49.366;2.738;2024-01-15T06:48:35;41.50;;;36.50;;
7879;SDS011;3985;49.366;2.738;2024-01-15T06:51:02;33.00;;;27.75;;
7879;SDS011;3985;49.366;2.738;2024-01-15T06:53:30;29.25;;;29.25;;
7879;SDS011;3985;49.366;2.738;2024-01-15T06:55:57;29.50;;;29.50;;
7879;SDS011;3985;49.366;2.738;2024-01-15T06:58:24;33.75;;;31.00;;
7879;SDS011;3985;49.366;2.738;2024-01-15T07:00:53;41.75;;;39.00;;
7879;SDS011;3985;49.366;2.738;2024-01-15T07:03:20;32.50;;;32.25;;
7879;SDS011;3985;49.366;2.738;2024-01-15T07:05:47;36.25;;;31.75;;
7879;SDS011;3985;49.366;2.738;2024-01-15T07:08:15;35.50;;;30.50;;
7879;SDS011;3985;49.366;2.738;2024-01-15T07:10:42;38.00;;;30.75;;
7879;SDS011;3985;49.366;2.738;2024-01-15T07:13:09;33.00;;;30.67;;
7879;SDS011;3985;49.366;2.738;2024-01-15T07:15:38;42.33;;;34.33;;
7879;SDS011;3985;49.366;2.738;2024-01-15T07:18:07;48.00;;;40.00;;
7879;SDS011;3985;49.366;2.738;2024-01-15T07:20:34;30.00;;;29.00;;
7879;SDS011;3985;49.366;2.738;2024-01-15T07:23:01;47.67;;;39.33;;
7879;SDS011;3985;49.366;2.738;2024-01-15T07:25:29;37.33;;;35.33;;
7879;SDS011;3985;49.366;2.738;2024-01-15T07:27:56;40.33;;;33.33;;
7879;SDS011;3985;49.366;2.738;2024-01-15T07:30:23;41.00;;;37.00;;
7879;SDS011;3985;49.366;2.738;2024-01-15T07:32:53;42.00;;;34.33;;
7879;SDS011;3985;49.366;2.738;2024-01-15T07:35:22;45.00;;;40.00;;
7879;SDS011;3985;49.366;2.738;2024-01-15T07:37:49;42.33;;;33.00;;
7879;SDS011;3985;49.366;2.738;2024-01-15T07:40:16;40.67;;;39.33;;
7879;SDS011;3985;49.366;2.738;2024-01-15T07:42:45;31.67;;;27.33;;
7879;SDS011;3985;49.366;2.738;2024-01-15T07:45:12;58.33;;;40.67;;
7879;SDS011;3985;49.366;2.738;2024-01-15T07:47:40;40.33;;;36.00;;
7879;SDS011;3985;49.366;2.738;2024-01-15T07:50:07;44.00;;;41.00;;
7879;SDS011;3985;49.366;2.738;2024-01-15T07:52:35;36.00;;;36.00;;
7879;SDS011;3985;49.366;2.738;2024-01-15T07:55:03;36.67;;;31.67;;
7879;SDS011;3985;49.366;2.738;2024-01-15T07:57:30;36.33;;;35.33;;
7879;SDS011;3985;49.366;2.738;2024-01-15T07:59:59;43.33;;;37.67;;
7879;SDS011;3985;49.366;2.738;2024-01-15T08:02:29;33.00;;;30.00;;
7879;SDS011;3985;49.366;2.738;2024-01-15T08:04:57;36.33;;;36.33;;
7879;SDS011;3985;49.366;2.738;2024-01-15T08:07:24;40.33;;;34.33;;
7879;SDS011;3985;49.366;2.738;2024-01-15T08:10:00;42.00;;;33.75;;
7879;SDS011;3985;49.366;2.738;2024-01-15T08:12:27;29.50;;;28.75;;
7879;SDS011;3985;49.366;2.738;2024-01-15T08:14:58;33.50;;;23.50;;
7879;SDS011;3985;49.366;2.738;2024-01-15T08:17:25;29.75;;;27.50;;
7879;SDS011;3985;49.366;2.738;2024-01-15T08:19:53;26.50;;;25.25;;
7879;SDS011;3985;49.366;2.738;2024-01-15T08:22:21;26.25;;;23.75;;
7879;SDS011;3985;49.366;2.738;2024-01-15T08:24:48;26.25;;;25.50;;
7879;SDS011;3985;49.366;2.738;2024-01-15T08:27:17;28.75;;;25.50;;
7879;SDS011;3985;49.366;2.738;2024-01-15T08:29:45;24.75;;;19.00;;
7879;SDS011;3985;49.366;2.738;2024-01-15T08:32:12;24.50;;;22.50;;
7879;SDS011;3985;49.366;2.738;2024-01-15T08:34:40;25.75;;;21.50;;
7879;SDS011;3985;49.366;2.738;2024-01-15T08:37:08;26.75;;;22.75;;
7879;SDS011;3985;49.366;2.738;2024-01-15T08:39:35;36.00;;;32.50;;
7879;SDS011;3985;49.366;2.738;2024-01-15T08:42:03;39.50;;;32.75;;
7879;SDS011;3985;49.366;2.738;2024-01-15T08:44:32;28.25;;;25.75;;
7879;SDS011;3985;49.366;2.738;2024-01-15T08:46:59;42.50;;;32.75;;
7879;SDS011;3985;49.366;2.738;2024-01-15T08:49:28;32.25;;;24.75;;
7879;SDS011;3985;49.366;2.738;2024-01-15T08:51:55;39.00;;;31.50;;
7879;SDS011;3985;49.366;2.738;2024-01-15T08:54:22;35.75;;;31.00;;
7879;SDS011;3985;49.366;2.738;2024-01-15T08:56:50;30.25;;;27.00;;
7879;SDS011;3985;49.366;2.738;2024-01-15T08:59:17;31.50;;;26.75;;
7879;SDS011;3985;49.366;2.738;2024-01-15T09:01:51;32.50;;;28.00;;
7879;SDS011;3985;49.366;2.738;2024-01-15T09:04:18;31.75;;;31.75;;
7879;SDS011;3985;49.366;2.738;2024-01-15T09:06:45;36.25;;;30.75;;
7879;SDS011;3985;49.366;2.738;2024-01-15T09:09:12;35.00;;;32.25;;
7879;SDS011;3985;49.366;2.738;2024-01-15T09:11:40;37.00;;;34.00;;
7879;SDS011;3985;49.366;2.738;2024-01-15T09:14:07;33.75;;;26.75;;
7879;SDS011;3985;49.366;2.738;2024-01-15T09:16:34;34.00;;;28.50;;
7879;SDS011;3985;49.366;2.738;2024-01-15T09:19:03;24.25;;;24.25;;
7879;SDS011;3985;49.366;2.738;2024-01-15T09:21:30;26.25;;;26.25;;
7879;SDS011;3985;49.366;2.738;2024-01-15T09:23:57;26.00;;;22.50;;
7879;SDS011;3985;49.366;2.738;2024-01-15T09:26:24;19.50;;;15.75;;
7879;SDS011;3985;49.366;2.738;2024-01-15T09:28:54;26.50;;;23.00;;
7879;SDS011;3985;49.366;2.738;2024-01-15T09:31:21;22.50;;;22.50;;
7879;SDS011;3985;49.366;2.738;2024-01-15T09:33:48;21.00;;;18.25;;
7879;SDS011;3985;49.366;2.738;2024-01-15T09:36:22;21.25;;;21.25;;
7879;SDS011;3985;49.366;2.738;2024-01-15T09:38:50;20.00;;;20.00;;
7879;SDS011;3985;49.366;2.738;2024-01-15T09:41:20;15.25;;;10.50;;
7879;SDS011;3985;49.366;2.738;2024-01-15T09:43:48;26.00;;;22.50;;
7879;SDS011;3985;49.366;2.738;2024-01-15T09:46:15;22.00;;;20.75;;
7879;SDS011;3985;49.366;2.738;2024-01-15T09:48:43;25.00;;;19.50;;
7879;SDS011;3985;49.366;2.738;2024-01-15T09:51:10;18.25;;;18.25;;
7879;SDS011;3985;49.366;2.738;2024-01-15T09:53:39;17.00;;;15.00;;
7879;SDS011;3985;49.366;2.738;2024-01-15T09:56:07;18.50;;;17.75;;
7879;SDS011;3985;49.366;2.738;2024-01-15T09:58:35;14.00;;;11.75;;
7879;SDS011;3985;49.366;2.738;2024-01-15T10:01:02;13.75;;;10.50;;
7879;SDS011;3985;49.366;2.738;2024-01-15T10:03:30;15.75;;;11.25;;
7879;SDS011;3985;49.366;2.738;2024-01-15T10:05:57;10.25;;;10.25;;
7879;SDS011;3985;49.366;2.738;2024-01-15T10:08:26;7.50;;;7.50;;
7879;SDS011;3985;49.366;2.738;2024-01-15T10:10:59;13.25;;;9.75;;
7879;SDS011;3985;49.366;2.738;2024-01-15T10:13:26;7.00;;;5.50;;
7879;SDS011;3985;49.366;2.738;2024-01-15T10:15:56;7.00;;;6.00;;
7879;SDS011;3985;49.366;2.738;2024-01-15T10:18:24;5.00;;;5.00;;
7879;SDS011;3985;49.366;2.738;2024-01-15T10:20:52;3.50;;;3.50;;
7879;SDS011;3985;49.366;2.738;2024-01-15T10:23:19;4.50;;;4.50;;
7879;SDS011;3985;49.366;2.738;2024-01-15T10:25:46;3.00;;;3.00;;
7879;SDS011;3985;49.366;2.738;2024-01-15T10:28:15;2.75;;;2.75;;
7879;SDS011;3985;49.366;2.738;2024-01-15T10:30:42;1.25;;;1.25;;
7879;SDS011;3985;49.366;2.738;2024-01-15T10:33:09;1.00;;;1.00;;
7879;SDS011;3985;49.366;2.738;2024-01-15T10:35:37;2.00;;;2.00;;
7879;SDS011;3985;49.366;2.738;2024-01-15T10:38:05;1.00;;;1.00;;
7879;SDS011;3985;49.366;2.738;2024-01-15T10:40:32;0.00;;;0.00;;
7879;SDS011;3985;49.366;2.738;2024-01-15T10:43:02;2.00;;;1.00;;
7879;SDS011;3985;49.366;2.738;2024-01-15T10:45:31;1.00;;;1.00;;
7879;SDS011;3985;49.366;2.738;2024-01-15T10:47:58;0.75;;;0.75;;
7879;SDS011;3985;49.366;2.738;2024-01-15T10:50:27;0.00;;;0.00;;
7879;SDS011;3985;49.366;2.738;2024-01-15T10:52:56;0.00;;;0.00;;
7879;SDS011;3985;49.366;2.738;2024-01-15T10:55:24;1.00;;;1.00;;
7879;SDS011;3985;49.366;2.738;2024-01-15T10:57:55;0.75;;;0.75;;
7879;SDS011;3985;49.366;2.738;2024-01-15T11:00:24;0.00;;;0.00;;
7879;SDS011;3985;49.366;2.738;2024-01-15T11:02:53;1.75;;;1.00;;
7879;SDS011;3985;49.366;2.738;2024-01-15T11:05:21;1.50;;;0.00;;
7879;SDS011;3985;49.366;2.738;2024-01-15T11:07:48;2.50;;;0.25;;
7879;SDS011;3985;49.366;2.738;2024-01-15T11:13:14;0.50;;;0.50;;
7879;SDS011;3985;49.366;2.738;2024-01-15T11:15:55;0.75;;;0.75;;
7879;SDS011;3985;49.366;2.738;2024-01-15T11:18:27;1.00;;;1.00;;
7879;SDS011;3985;49.366;2.738;2024-01-15T11:23:48;0.00;;;0.00;;
7879;SDS011;3985;49.366;2.738;2024-01-15T11:26:33;2.75;;;2.75;;
7879;SDS011;3985;49.366;2.738;2024-01-15T11:29:02;0.00;;;0.00;;
7879;SDS011;3985;49.366;2.738;2024-01-15T11:37:27;0.00;;;0.00;;
7879;SDS011;3985;49.366;2.738;2024-01-15T11:39:55;0.00;;;0.00;;
7879;SDS011;3985;49.366;2.738;2024-01-15T11:42:25;2.00;;;2.00;;
7879;SDS011;3985;49.366;2.738;2024-01-15T11:44:53;1.75;;;1.75;;
7879;SDS011;3985;49.366;2.738;2024-01-15T11:47:32;0.00;;;0.00;;
7879;SDS011;3985;49.366;2.738;2024-01-15T11:50:19;1.00;;;1.00;;
7879;SDS011;3985;49.366;2.738;2024-01-15T11:52:50;0.00;;;0.00;;
7879;SDS011;3985;49.366;2.738;2024-01-15T11:55:29;0.00;;;0.00;;
7879;SDS011;3985;49.366;2.738;2024-01-15T11:58:00;1.00;;;0.00;;
7879;SDS011;3985;49.366;2.738;2024-01-15T12:00:28;0.00;;;0.00;;
7879;SDS011;3985;49.366;2.738;2024-01-15T12:02:56;2.00;;;0.25;;
7879;SDS011;3985;49.366;2.738;2024-01-15T12:05:28;0.00;;;0.00;;
7879;SDS011;3985;49.366;2.738;2024-01-15T12:07:55;2.00;;;2.00;;
7879;SDS011;3985;49.366;2.738;2024-01-15T12:10:23;1.75;;;0.00;;
7879;SDS011;3985;49.366;2.738;2024-01-15T12:12:57;0.00;;;0.00;;
7879;SDS011;3985;49.366;2.738;2024-01-15T12:15:26;0.00;;;0.00;;
7879;SDS011;3985;49.366;2.738;2024-01-15T12:17:54;0.75;;;0.75;;
7879;SDS011;3985;49.366;2.738;2024-01-15T12:20:23;0.00;;;0.00;;
7879;SDS011;3985;49.366;2.738;2024-01-15T12:22:52;0.00;;;0.00;;
7879;SDS011;3985;49.366;2.738;2024-01-15T12:25:20;0.00;;;0.00;;
7879;SDS011;3985;49.366;2.738;2024-01-15T12:27:48;0.00;;;0.00;;
7879;SDS011;3985;49.366;2.738;2024-01-15T12:30:17;0.00;;;0.00;;
7879;SDS011;3985;49.366;2.738;2024-01-15T12:32:45;0.00;;;0.00;;
7879;SDS011;3985;49.366;2.738;2024-01-15T12:35:13;0.00;;;0.00;;
7879;SDS011;3985;49.366;2.738;2024-01-15T12:37:41;0.00;;;0.00;;
7879;SDS011;3985;49.366;2.738;2024-01-15T12:40:10;0.00;;;0.00;;
7879;SDS011;3985;49.366;2.738;2024-01-15T12:42:39;0.00;;;0.00;;
7879;SDS011;3985;49.366;2.738;2024-01-15T12:45:07;0.00;;;0.00;;
7879;SDS011;3985;49.366;2.738;2024-01-15T12:47:35;0.00;;;0.00;;
7879;SDS011;3985;49.366;2.738;2024-01-15T12:50:05;0.00;;;0.00;;
7879;SDS011;3985;49.366;2.738;2024-01-15T12:52:33;0.00;;;0.00;;
7879;SDS011;3985;49.366;2.738;2024-01-15T12:55:03;0.00;;;0.00;;
7879;SDS011;3985;49.366;2.738;2024-01-15T12:57:32;2.00;;;0.00;;
7879;SDS011;3985;49.366;2.738;2024-01-15T13:00:00;2.00;;;0.00;;
7879;SDS011;3985;49.366;2.738;2024-01-15T13:02:27;0.00;;;0.00;;
7879;SDS011;3985;49.366;2.738;2024-01-15T13:04:57;0.00;;;0.00;;
7879;SDS011;3985;49.366;2.738;2024-01-15T13:07:29;0.00;;;0.00;;
7879;SDS011;3985;49.366;2.738;2024-01-15T13:09:56;0.00;;;0.00;;
7879;SDS011;3985;49.366;2.738;2024-01-15T13:12:23;0.00;;;0.00;;
7879;SDS011;3985;49.366;2.738;2024-01-15T13:14:52;0.50;;;0.00;;
7879;SDS011;3985;49.366;2.738;2024-01-15T13:17:19;0.00;;;0.00;;
7879;SDS011;3985;49.366;2.738;2024-01-15T13:19:47;0.00;;;0.00;;
7879;SDS011;3985;49.366;2.738;2024-01-15T13:22:14;0.25;;;0.25;;
7879;SDS011;3985;49.366;2.738;2024-01-15T13:24:43;1.00;;;1.00;;
7879;SDS011;3985;49.366;2.738;2024-01-15T13:27:10;0.00;;;0.00;;
7879;SDS011;3985;49.366;2.738;2024-01-15T13:29:38;1.00;;;1.00;;
7879;SDS011;3985;49.366;2.738;2024-01-15T13:32:06;0.00;;;0.00;;
7879;SDS011;3985;49.366;2.738;2024-01-15T13:34:35;0.00;;;0.00;;
7879;SDS011;3985;49.366;2.738;2024-01-15T13:37:02;0.00;;;0.00;;
7879;SDS011;3985;49.366;2.738;2024-01-15T13:39:29;1.75;;;0.00;;
7879;SDS011;3985;49.366;2.738;2024-01-15T13:41:58;0.50;;;0.00;;
7879;SDS011;3985;49.366;2.738;2024-01-15T13:44:26;0.00;;;0.00;;
7879;SDS011;3985;49.366;2.738;2024-01-15T13:46:53;0.00;;;0.00;;
7879;SDS011;3985;49.366;2.738;2024-01-15T13:49:23;6.25;;;3.75;;
7879;SDS011;3985;49.366;2.738;2024-01-15T13:51:53;0.75;;;0.75;;
7879;SDS011;3985;49.366;2.738;2024-01-15T13:54:20;1.00;;;1.00;;
7879;SDS011;3985;49.366;2.738;2024-01-15T13:56:47;0.00;;;0.00;;
7879;SDS011;3985;49.366;2.738;2024-01-15T13:59:15;0.00;;;0.00;;
7879;SDS011;3985;49.366;2.738;2024-01-15T14:01:42;0.00;;;0.00;;
7879;SDS011;3985;49.366;2.738;2024-01-15T14:04:11;0.00;;;0.00;;
7879;SDS011;3985;49.366;2.738;2024-01-15T14:06:40;0.00;;;0.00;;
7879;SDS011;3985;49.366;2.738;2024-01-15T14:09:08;0.75;;;0.00;;
7879;SDS011;3985;49.366;2.738;2024-01-15T14:11:35;1.00;;;0.00;;
7879;SDS011;3985;49.366;2.738;2024-01-15T14:14:03;0.00;;;0.00;;
7879;SDS011;3985;49.366;2.738;2024-01-15T14:16:30;0.00;;;0.00;;
7879;SDS011;3985;49.366;2.738;2024-01-15T14:18:57;0.00;;;0.00;;
7879;SDS011;3985;49.366;2.738;2024-01-15T14:21:24;0.00;;;0.00;;
7879;SDS011;3985;49.366;2.738;2024-01-15T14:23:53;2.00;;;2.00;;
7879;SDS011;3985;49.366;2.738;2024-01-15T14:26:20;1.00;;;0.00;;
7879;SDS011;3985;49.366;2.738;2024-01-15T14:28:47;0.00;;;0.00;;
7879;SDS011;3985;49.366;2.738;2024-01-15T14:31:15;0.00;;;0.00;;
7879;SDS011;3985;49.366;2.738;2024-01-15T14:33:42;0.00;;;0.00;;
7879;SDS011;3985;49.366;2.738;2024-01-15T14:36:09;0.25;;;0.00;;
7879;SDS011;3985;49.366;2.738;2024-01-15T14:38:36;0.00;;;0.00;;
7879;SDS011;3985;49.366;2.738;2024-01-15T14:41:05;1.00;;;0.00;;
7879;SDS011;3985;49.366;2.738;2024-01-15T14:43:32;0.00;;;0.00;;
7879;SDS011;3985;49.366;2.738;2024-01-15T14:45:59;0.00;;;0.00;;
7879;SDS011;3985;49.366;2.738;2024-01-15T14:48:26;0.00;;;0.00;;
7879;SDS011;3985;49.366;2.738;2024-01-15T14:50:54;0.00;;;0.00;;
7879;SDS011;3985;49.366;2.738;2024-01-15T14:53:22;0.00;;;0.00;;
7879;SDS011;3985;49.366;2.738;2024-01-15T14:55:49;0.00;;;0.00;;
7879;SDS011;3985;49.366;2.738;2024-01-15T14:58:18;0.00;;;0.00;;
7879;SDS011;3985;49.366;2.738;2024-01-15T15:00:45;0.00;;;0.00;;
7879;SDS011;3985;49.366;2.738;2024-01-15T15:03:13;0.00;;;0.00;;
7879;SDS011;3985;49.366;2.738;2024-01-15T15:05:41;0.00;;;0.00;;
7879;SDS011;3985;49.366;2.738;2024-01-15T15:08:08;0.00;;;0.00;;
7879;SDS011;3985;49.366;2.738;2024-01-15T15:10:37;0.00;;;0.00;;
7879;SDS011;3985;49.366;2.738;2024-01-15T15:13:05;1.00;;;0.00;;
7879;SDS011;3985;49.366;2.738;2024-01-15T15:15:34;0.00;;;0.00;;